Time;durP1;ratioP1;P1;durP2;ratioP2;P2;SDS_P1;SDS_P2;PMS_P1;PMS_P2;Temp;Humidity;BMP_temperature;BMP_pressure;BME280_temperature;BME280_humidity;BME280_pressure;Samples;Min_cycle;Max_cycle;Signal;HPM_P1;HPM_P2
2023/01/18 00:01:52;;;;;;;28.42;13.63;;;;;;;-0.83;100.00;98796.84;4924292;29;20130;-77
2023/01/18 00:04:17;;;;;;;51.22;12.70;;;;;;;-0.76;100.00;98798.16;4909614;29;20122;-77
2023/01/18 00:06:42;;;;;;;24.23;12.65;;;;;;;-0.60;100.00;98803.38;4939511;28;20043;-77
2023/01/18 00:09:08;;;;;;;23.92;11.95;;;;;;;-0.75;100.00;98792.69;4957434;28;20504;-76
2023/01/18 00:11:33;;;;;;;22.35;11.27;;;;;;;-0.64;100.00;98807.22;4969187;28;20135;-77
2023/01/18 00:14:01;;;;;;;27.27;10.63;;;;;;;-0.77;100.00;98805.38;4931185;28;20115;-77
2023/01/18 00:16:29;;;;;;;27.92;11.90;;;;;;;-0.83;100.00;98804.91;4949071;29;20031;-77
2023/01/18 00:18:56;;;;;;;23.48;11.63;;;;;;;-0.62;100.00;98808.88;4963910;28;20026;-76
2023/01/18 00:21:23;;;;;;;23.35;11.93;;;;;;;-0.62;100.00;98810.69;4962180;28;20059;-77
2023/01/18 00:23:50;;;;;;;24.77;10.85;;;;;;;-0.56;100.00;98805.78;4940736;29;20047;-77
2023/01/18 00:26:16;;;;;;;28.45;12.38;;;;;;;-0.50;100.00;98806.31;4922410;28;20384;-77
2023/01/18 00:28:41;;;;;;;26.38;12.43;;;;;;;-0.46;100.00;98807.81;4940237;28;20041;-78
2023/01/18 00:31:09;;;;;;;25.35;11.63;;;;;;;-0.63;100.00;98812.50;4942935;28;20037;-79
2023/01/18 00:33:34;;;;;;;27.58;12.30;;;;;;;-0.61;100.00;98810.59;4950807;28;20518;-76
2023/01/18 00:36:01;;;;;;;25.38;11.60;;;;;;;-0.55;100.00;98817.38;4939153;29;20039;-77
2023/01/18 00:38:28;;;;;;;26.33;11.35;;;;;;;-0.62;100.00;98813.38;4952469;28;20039;-77
2023/01/18 00:40:54;;;;;;;22.08;11.90;;;;;;;-0.45;100.00;98817.63;4951513;28;20037;-77
2023/01/18 00:43:38;;;;;;;27.17;11.52;;;;;;;-0.63;100.00;98803.59;4924333;29;20035;-77
2023/01/18 00:46:04;;;;;;;25.73;12.50;;;;;;;-0.52;100.00;98821.69;4939696;29;20031;-77
2023/01/18 00:48:30;;;;;;;22.58;11.15;;;;;;;-0.52;100.00;98805.56;4972341;28;20454;-77
2023/01/18 00:50:56;;;;;;;28.98;12.32;;;;;;;-0.51;100.00;98820.72;4922931;29;20043;-77
2023/01/18 00:53:21;;;;;;;28.58;12.27;;;;;;;-0.80;100.00;98796.66;4955564;29;20461;-77
2023/01/18 00:55:48;;;;;;;23.30;11.77;;;;;;;-0.59;100.00;98814.03;4936587;29;20031;-77
2023/01/18 00:58:13;;;;;;;36.50;12.40;;;;;;;-0.69;100.00;98807.53;4963279;28;20061;-78
2023/01/18 01:00:40;;;;;;;23.40;12.48;;;;;;;-0.56;100.00;98812.97;4943738;28;20055;-77
2023/01/18 01:03:06;;;;;;;27.92;13.35;;;;;;;-0.53;100.00;98809.22;4939807;29;20032;-77
2023/01/18 01:08:16;;;;;;;21.95;12.60;;;;;;;-0.63;100.00;98812.50;4932842;29;20501;-77
2023/01/18 01:10:44;;;;;;;28.80;12.73;;;;;;;-0.61;100.00;98818.66;4955299;29;20032;-77
2023/01/18 01:26:49;;;;;;;33.42;9.63;;;;;;;-0.35;100.00;98823.25;4937054;28;20098;-77
2023/01/18 01:29:15;;;;;;;21.50;8.13;;;;;;;-0.43;100.00;98838.03;4956140;28;20138;-77
2023/01/18 01:31:41;;;;;;;19.77;8.20;;;;;;;-0.60;100.00;98830.25;4930012;28;20027;-77
2023/01/18 01:34:06;;;;;;;19.88;8.13;;;;;;;-0.77;100.00;98834.91;4911523;29;20035;-76
2023/01/18 01:36:32;;;;;;;17.35;8.77;;;;;;;-0.73;100.00;98840.09;4925257;29;20027;-77
2023/01/18 01:38:57;;;;;;;19.75;8.05;;;;;;;-0.67;100.00;98835.19;4922915;28;20039;-77
2023/01/18 01:41:31;;;;;;;22.10;8.25;;;;;;;-0.57;100.00;98836.28;4939007;28;20035;-78
2023/01/18 01:43:57;;;;;;;23.08;8.15;;;;;;;-0.50;100.00;98839.44;4958431;28;20049;-77
2023/01/18 01:46:41;;;;;;;21.30;9.50;;;;;;;-0.68;100.00;98846.88;4938237;29;20041;-77
2023/01/18 01:49:22;;;;;;;20.70;7.75;;;;;;;-0.82;100.00;98853.16;4941360;28;20067;-76
2023/01/18 01:51:54;;;;;;;14.55;8.18;;;;;;;-0.94;100.00;98844.06;4939013;29;20379;-77
2023/01/18 01:54:27;;;;;;;20.95;7.85;;;;;;;-0.98;100.00;98853.28;4938764;29;20105;-77
2023/01/18 01:56:55;;;;;;;;;;;;;;;-1.01;100.00;98852.63;4938551;29;20035;-77
2023/01/18 01:59:22;;;;;;;20.02;7.97;;;;;;;-0.90;100.00;98854.59;4932080;28;19921;-77
2023/01/18 02:01:48;;;;;;;18.70;6.93;;;;;;;-1.03;100.00;98859.91;4946155;28;20023;-77
2023/01/18 02:04:13;;;;;;;31.02;6.93;;;;;;;-0.99;100.00;98854.22;4936424;29;20046;-77
2023/01/18 02:06:39;;;;;;;16.70;7.20;;;;;;;-0.92;100.00;98865.44;4945187;29;20066;-77
2023/01/18 02:09:11;;;;;;;21.33;6.90;;;;;;;-0.99;100.00;98870.34;4936366;28;20122;-77
2023/01/18 02:11:38;;;;;;;19.10;7.32;;;;;;;-1.08;100.00;98867.38;4948154;28;20094;-77
2023/01/18 02:14:07;;;;;;;16.67;6.78;;;;;;;-1.13;100.00;98871.25;4939196;29;20039;-77
2023/01/18 02:16:38;;;;;;;17.52;7.75;;;;;;;-1.12;100.00;98872.94;4953619;28;20031;-77
2023/01/18 02:19:52;;;;;;;24.20;7.63;;;;;;;-1.20;100.00;98871.72;4921367;28;20475;-76
2023/01/18 02:22:57;;;;;;;14.85;7.97;;;;;;;-1.30;100.00;98883.06;4950488;28;20030;-76
2023/01/18 02:25:28;;;;;;;16.70;7.97;;;;;;;-1.20;100.00;98877.09;4954011;28;20053;-77
2023/01/18 02:28:08;;;;;;;20.85;8.40;;;;;;;-1.26;100.00;98872.09;4956241;28;20516;-77
2023/01/18 02:31:00;;;;;;;21.08;8.60;;;;;;;-1.30;100.00;98868.75;4962208;28;20482;-76
2023/01/18 02:33:30;;;;;;;20.17;8.85;;;;;;;-1.32;100.00;98871.53;4945620;28;20100;-76
2023/01/18 02:36:01;;;;;;;20.85;8.35;;;;;;;-1.31;100.00;98875.94;4937290;29;20023;-77
2023/01/18 02:38:44;;;;;;;20.67;8.98;;;;;;;-1.28;100.00;98880.25;4954427;28;20031;-77
2023/01/18 02:41:19;;;;;;;26.85;10.30;;;;;;;-1.26;100.00;98880.16;4953409;28;20031;-77
2023/01/18 02:46:32;;;;;;;20.73;9.27;;;;;;;-1.32;100.00;98871.53;4934041;29;20376;-78
2023/01/18 02:49:11;;;;;;;26.08;10.48;;;;;;;-1.27;100.00;98878.44;4919853;29;20039;-77
2023/01/18 02:51:37;;;;;;;20.63;9.20;;;;;;;-1.32;100.00;98882.25;4936100;29;20070;-77
2023/01/18 02:54:06;;;;;;;28.73;9.75;;;;;;;-1.33;100.00;98877.88;4942143;28;20141;-77
2023/01/18 02:56:38;;;;;;;31.95;9.85;;;;;;;-1.44;100.00;98884.84;4937366;28;20031;-77
2023/01/18 02:59:11;;;;;;;24.93;11.07;;;;;;;-1.50;100.00;98865.47;4924002;28;20402;-77
2023/01/18 03:01:49;;;;;;;25.50;8.68;;;;;;;-1.47;100.00;98885.91;4943463;29;20295;-77
2023/01/18 03:04:25;;;;;;;20.08;9.88;;;;;;;-1.37;100.00;98896.94;4938270;29;20114;-77
2023/01/18 03:07:18;;;;;;;20.38;9.13;;;;;;;-1.45;100.00;98891.19;4936440;28;20110;-77
2023/01/18 03:09:44;;;;;;;19.15;10.82;;;;;;;-1.54;100.00;98893.47;4973614;28;20031;-77
2023/01/18 03:12:45;;;;;;;29.38;11.55;;;;;;;-1.44;100.00;98891.09;4926162;29;20092;-77
2023/01/18 03:15:37;;;;;;;30.08;9.32;;;;;;;-1.50;100.00;98891.47;4940568;28;20046;-77
2023/01/18 03:18:14;;;;;;;18.40;9.07;;;;;;;-1.28;100.00;98893.66;4966260;28;20041;-77
2023/01/18 03:20:45;;;;;;;34.60;11.10;;;;;;;-1.38;100.00;98900.56;4966524;28;20042;-77
2023/01/18 03:23:37;;;;;;;21.77;9.52;;;;;;;-1.54;100.00;98890.78;4951312;28;20038;-76
2023/01/18 03:26:13;;;;;;;21.75;10.18;;;;;;;-1.50;100.00;98903.03;4954172;28;20183;-77
2023/01/18 03:34:34;;;;;;;30.08;10.63;;;;;;;-1.39;100.00;98902.41;4938970;28;20027;-78
2023/01/18 03:37:04;;;;;;;19.70;10.35;;;;;;;-1.45;100.00;98900.09;4946756;28;20031;-77
2023/01/18 03:39:45;;;;;;;28.52;11.32;;;;;;;-1.53;100.00;98900.53;4955207;28;20130;-76
2023/01/18 03:42:16;;;;;;;27.95;10.57;;;;;;;-1.55;100.00;98905.16;4934925;29;20053;-76
2023/01/18 03:44:49;;;;;;;26.15;10.90;;;;;;;-1.64;100.00;98902.16;4944403;28;20402;-77
2023/01/18 03:47:15;;;;;;;;;;;;;;;-1.50;100.00;98911.09;4945534;29;20501;-76
2023/01/18 03:49:40;;;;;;;22.70;9.60;;;;;;;-1.58;100.00;98912.53;4941390;28;19914;-76
2023/01/18 03:52:09;;;;;;;26.40;11.55;;;;;;;-1.52;100.00;98925.59;4944185;28;20497;-77
2023/01/18 03:54:43;;;;;;;23.48;11.50;;;;;;;-1.68;100.00;98921.13;4954962;28;20039;-77
2023/01/18 03:57:18;;;;;;;19.92;11.18;;;;;;;-1.73;100.00;98931.28;4928145;28;20042;-75
2023/01/18 03:59:45;;;;;;;23.08;9.93;;;;;;;-1.60;100.00;98935.91;4939117;28;20039;-77
2023/01/18 04:02:11;;;;;;;23.13;11.80;;;;;;;-1.54;100.00;98933.72;4954342;28;20039;-76
2023/01/18 04:04:36;;;;;;;28.83;11.57;;;;;;;-1.64;100.00;98935.25;4942393;28;20055;-76
2023/01/18 04:07:02;;;;;;;24.42;12.85;;;;;;;-1.60;100.00;98938.59;4953596;28;20047;-76
2023/01/18 04:09:28;;;;;;;21.27;11.50;;;;;;;-1.77;100.00;98936.91;4970193;28;20035;-77
2023/01/18 04:11:53;;;;;;;23.52;11.55;;;;;;;-1.75;100.00;98935.03;4959850;28;20034;-76
2023/01/18 04:14:19;;;;;;;36.85;12.85;;;;;;;-1.82;100.00;98937.22;4947262;28;20158;-77
2023/01/18 04:16:44;;;;;;;30.92;11.90;;;;;;;-1.72;100.00;98943.75;4944363;28;20082;-76
2023/01/18 04:19:10;;;;;;;23.42;11.93;;;;;;;-1.73;100.00;98939.31;4939333;28;20031;-76
2023/01/18 04:21:37;;;;;;;24.10;12.18;;;;;;;-1.64;100.00;98951.34;4969970;28;20039;-77
2023/01/18 04:24:03;;;;;;;30.25;14.20;;;;;;;-1.72;100.00;98951.78;4927975;28;20031;-76
2023/01/18 04:26:29;;;;;;;21.58;11.63;;;;;;;-1.76;100.00;98950.22;4931538;29;20070;-76
2023/01/18 04:28:54;;;;;;;27.15;12.48;;;;;;;-1.63;100.00;98952.19;4932568;28;20554;-77
2023/01/18 04:31:20;;;;;;;27.80;13.00;;;;;;;-1.81;100.00;98952.31;4956754;29;20042;-76
2023/01/18 04:33:50;;;;;;;32.38;12.38;;;;;;;-1.71;100.00;98958.00;4957492;28;20049;-76
2023/01/18 04:36:16;;;;;;;34.33;13.70;;;;;;;-1.68;100.00;98956.00;4958585;28;20035;-76
2023/01/18 04:38:41;;;;;;;24.85;10.75;;;;;;;-1.74;100.00;98952.81;4957378;28;20421;-78
2023/01/18 04:41:07;;;;;;;32.25;13.48;;;;;;;-1.77;100.00;98955.69;4935135;29;20043;-76
2023/01/18 04:43:32;;;;;;;26.23;11.10;;;;;;;-1.65;100.00;98963.03;4950786;28;20121;-76
2023/01/18 04:45:57;;;;;;;33.17;12.73;;;;;;;-1.60;100.00;98963.59;4941044;29;20043;-76
2023/01/18 04:48:24;;;;;;;18.77;11.85;;;;;;;-1.70;100.00;98957.91;4938152;28;20078;-78
2023/01/18 04:50:49;;;;;;;24.13;11.90;;;;;;;-1.63;100.00;98969.16;4938110;29;20087;-76
2023/01/18 04:53:16;;;;;;;27.20;12.85;;;;;;;-1.59;100.00;98969.81;4953620;29;20032;-76
2023/01/18 04:55:42;;;;;;;28.58;13.90;;;;;;;-1.71;100.00;98969.59;4940218;28;20035;-76
2023/01/18 04:58:07;;;;;;;30.40;13.75;;;;;;;-1.87;100.00;98975.03;4939746;29;20379;-76
2023/01/18 05:00:32;;;;;;;24.15;13.05;;;;;;;-2.12;100.00;98970.19;4922054;28;20121;-76
2023/01/18 05:02:58;;;;;;;27.52;12.73;;;;;;;-1.95;100.00;98973.72;4941698;29;20438;-76
2023/01/18 05:05:24;;;;;;;26.00;11.75;;;;;;;-2.00;100.00;98968.66;4924058;29;20051;-76
2023/01/18 05:07:50;;;;;;;26.48;12.90;;;;;;;-1.82;100.00;98981.91;4935120;28;20031;-76
2023/01/18 05:10:15;;;;;;;29.65;13.30;;;;;;;-1.88;100.00;98978.66;4952284;29;20051;-76
2023/01/18 05:12:41;;;;;;;26.20;12.43;;;;;;;-1.82;100.00;98988.16;4958245;28;20038;-76
2023/01/18 05:15:07;;;;;;;29.17;12.57;;;;;;;-1.75;100.00;98981.47;4937686;29;20039;-76
2023/01/18 05:17:33;;;;;;;35.65;14.25;;;;;;;-1.62;100.00;98991.47;4924093;28;20047;-77
2023/01/18 05:20:03;;;;;;;41.97;13.95;;;;;;;-1.55;100.00;98996.38;4949136;28;20038;-76
2023/01/18 05:22:28;;;;;;;28.55;11.85;;;;;;;-1.69;100.00;98986.50;4976137;28;20035;-76
2023/01/18 05:24:54;;;;;;;27.95;13.38;;;;;;;-1.67;100.00;98997.97;4922499;28;20510;-77
2023/01/18 05:27:20;;;;;;;32.28;13.43;;;;;;;-1.65;100.00;98991.69;4942097;28;20034;-77
2023/01/18 05:29:47;;;;;;;29.15;13.02;;;;;;;-1.57;100.00;99000.13;4960579;28;20034;-76
2023/01/18 05:32:13;;;;;;;31.38;12.73;;;;;;;-1.65;100.00;99005.09;4955802;28;20106;-76
2023/01/18 05:34:38;;;;;;;25.33;12.93;;;;;;;-1.57;100.00;99010.88;4952281;28;20405;-76
2023/01/18 05:37:04;;;;;;;25.65;12.52;;;;;;;-1.61;100.00;99009.31;4924128;28;20035;-75
2023/01/18 05:42:52;;;;;;;31.50;12.35;;;;;;;-1.55;100.00;99017.84;4943596;28;20039;-76
2023/01/18 05:45:19;;;;;;;33.78;13.45;;;;;;;-1.44;100.00;99017.22;4924060;28;20114;-77
2023/01/18 05:47:44;;;;;;;25.35;12.32;;;;;;;-1.36;100.00;99025.69;4955527;29;20386;-76
2023/01/18 05:50:10;;;;;;;25.92;12.63;;;;;;;-1.40;100.00;99029.50;4943816;28;20031;-75
2023/01/18 05:52:35;;;;;;;28.13;13.63;;;;;;;-1.34;100.00;99028.28;4949012;28;20039;-77
2023/01/18 05:55:01;;;;;;;31.63;13.82;;;;;;;-1.52;100.00;99027.56;4955685;28;20431;-75
2023/01/18 05:57:27;;;;;;;22.38;12.05;;;;;;;-1.73;100.00;99025.16;4938306;28;20085;-76
2023/01/18 05:59:52;;;;;;;29.23;13.93;;;;;;;-1.78;100.00;99027.25;4925245;29;20047;-75
2023/01/18 06:02:17;;;;;;;29.02;13.25;;;;;;;-1.69;100.00;99032.09;4952512;28;20158;-75
2023/01/18 06:04:43;;;;;;;25.67;11.57;;;;;;;-1.66;100.00;99028.34;4934290;29;20063;-75
2023/01/18 06:07:10;;;;;;;26.88;12.20;;;;;;;-1.64;100.00;99030.94;4929998;29;20201;-76
2023/01/18 06:09:35;;;;;;;36.10;15.77;;;;;;;-1.73;100.00;99046.63;4943699;29;20047;-75
2023/01/18 06:12:04;;;;;;;27.75;12.30;;;;;;;-1.71;100.00;99050.06;4947985;28;20406;-75
2023/01/18 06:14:30;;;;;;;30.67;12.68;;;;;;;-1.81;100.00;99046.19;4930589;29;20051;-75
2023/01/18 06:16:55;;;;;;;28.25;12.85;;;;;;;-1.67;100.00;99053.47;4924104;29;20110;-75
2023/01/18 06:19:21;;;;;;;29.80;13.20;;;;;;;-1.76;100.00;99054.84;4908098;28;20090;-75
2023/01/18 06:21:46;;;;;;;32.33;13.30;;;;;;;-1.64;100.00;99065.81;4973592;28;20074;-75
2023/01/18 06:24:13;;;;;;;26.85;11.82;;;;;;;-1.71;100.00;99058.13;4914706;29;20508;-75
2023/01/18 06:26:38;;;;;;;26.08;12.88;;;;;;;-1.74;100.00;99074.44;4956610;28;20167;-75
2023/01/18 06:29:04;;;;;;;29.63;13.57;;;;;;;-1.67;100.00;99073.09;4939731;28;20054;-75
2023/01/18 06:31:29;;;;;;;27.73;13.93;;;;;;;-1.71;100.00;99078.72;4939283;29;20094;-75
2023/01/18 06:33:55;;;;;;;27.90;13.43;;;;;;;-1.70;100.00;99084.00;4956240;28;20039;-75
2023/01/18 06:36:20;;;;;;;24.80;14.23;;;;;;;-1.53;100.00;99069.59;4935596;29;20031;-75
2023/01/18 06:38:45;;;;;;;40.08;13.20;;;;;;;-1.73;100.00;99076.13;4963864;28;20126;-75
2023/01/18 06:41:11;;;;;;;35.28;14.18;;;;;;;-1.71;100.00;99084.09;4956029;28;20039;-75
2023/01/18 06:43:36;;;;;;;27.02;12.80;;;;;;;-1.65;100.00;99091.81;4956771;28;20379;-75
2023/01/18 06:46:03;;;;;;;24.92;13.35;;;;;;;-1.77;100.00;99085.31;4957911;28;20097;-75
2023/01/18 06:48:28;;;;;;;31.15;14.82;;;;;;;-1.69;100.00;99092.91;4944248;29;20039;-75
2023/01/18 06:50:57;;;;;;;21.73;11.60;;;;;;;-1.71;100.00;99098.38;4939574;29;20556;-75
2023/01/18 06:53:23;;;;;;;36.92;13.82;;;;;;;-1.80;100.00;99098.91;4923775;28;20035;-76
2023/01/18 06:56:00;;;;;;;29.35;14.00;;;;;;;-1.70;100.00;99100.09;4955448;28;20038;-75
2023/01/18 06:58:26;;;;;;;31.00;13.80;;;;;;;-1.87;100.00;99098.41;4957203;28;20033;-77
2023/01/18 07:00:57;;;;;;;27.05;13.85;;;;;;;-1.90;100.00;99101.25;4940565;29;20442;-75
2023/01/18 07:03:23;;;;;;;24.90;12.93;;;;;;;-1.87;100.00;99100.19;4936159;28;20046;-75
2023/01/18 07:05:51;;;;;;;39.53;14.68;;;;;;;-1.70;100.00;99113.53;4924621;28;20070;-75
2023/01/18 07:08:19;;;;;;;32.80;13.10;;;;;;;-1.77;100.00;99108.56;4938491;28;20525;-75
2023/01/18 07:10:45;;;;;;;30.42;15.05;;;;;;;-1.66;100.00;99116.88;4946716;29;20040;-76
2023/01/18 07:13:11;;;;;;;24.23;13.15;;;;;;;-1.82;100.00;99116.03;4919915;29;20091;-76
2023/01/18 07:15:36;;;;;;;29.55;13.68;;;;;;;-1.84;100.00;99121.47;4947541;29;20035;-76
2023/01/18 07:18:02;;;;;;;24.35;13.23;;;;;;;-1.85;100.00;99120.63;4957908;28;20043;-76
2023/01/18 07:20:28;;;;;;;32.75;13.27;;;;;;;-1.83;100.00;99120.53;4924194;29;20038;-76
2023/01/18 07:22:53;;;;;;;35.78;14.05;;;;;;;-2.04;100.00;99131.50;4944680;28;20058;-76
2023/01/18 07:25:19;;;;;;;37.53;14.40;;;;;;;-1.89;100.00;99139.66;4940053;29;20048;-76
2023/01/18 07:27:47;;;;;;;27.40;13.88;;;;;;;-1.96;100.00;99143.63;4923315;29;20028;-76
2023/01/18 07:30:13;;;;;;;29.15;13.60;;;;;;;-1.92;100.00;99142.50;4939470;29;20035;-75
2023/01/18 07:32:43;;;;;;;29.77;14.18;;;;;;;-1.87;100.00;99154.72;4939552;29;20559;-73
2023/01/18 07:35:09;;;;;;;27.15;13.07;;;;;;;-1.83;100.00;99147.34;4934678;29;20095;-74
2023/01/18 07:37:35;;;;;;;31.52;14.25;;;;;;;-1.91;100.00;99153.13;4949536;28;20082;-75
2023/01/18 07:40:01;;;;;;;24.27;13.27;;;;;;;-1.97;100.00;99149.94;4934728;29;20043;-74
2023/01/18 07:42:26;;;;;;;35.67;14.50;;;;;;;-1.96;100.00;99157.03;4958969;28;20134;-74
2023/01/18 07:44:52;;;;;;;31.65;14.27;;;;;;;-2.00;100.00;99142.94;4941185;28;20475;-75
2023/01/18 07:47:17;;;;;;;34.95;14.70;;;;;;;-1.87;100.00;99165.44;4930579;29;20122;-74
2023/01/18 07:49:42;;;;;;;33.38;14.60;;;;;;;-1.80;100.00;99171.34;4924961;29;20039;-75
2023/01/18 07:52:08;;;;;;;31.10;15.27;;;;;;;-1.78;100.00;99171.25;4946305;28;20034;-74
2023/01/18 07:54:33;;;;;;;31.00;13.45;;;;;;;-1.80;100.00;99167.75;4944133;28;20089;-74
2023/01/18 07:56:59;;;;;;;24.35;14.30;;;;;;;-1.73;100.00;99177.22;4938658;29;20059;-74
2023/01/18 07:59:26;;;;;;;31.23;14.07;;;;;;;-1.69;100.00;99178.75;4942093;29;20062;-74
2023/01/18 08:01:52;;;;;;;29.30;13.65;;;;;;;-1.74;100.00;99173.69;4945857;29;20145;-74
2023/01/18 08:04:17;;;;;;;33.08;13.43;;;;;;;-1.78;100.00;99166.75;4958534;29;20483;-75
2023/01/18 08:06:42;;;;;;;29.25;14.63;;;;;;;-1.76;100.00;99182.75;4975961;28;20470;-74
2023/01/18 08:09:08;;;;;;;30.25;13.88;;;;;;;-1.69;100.00;99179.66;4961907;28;20042;-74
2023/01/18 08:11:33;;;;;;;27.10;14.02;;;;;;;-1.62;100.00;99195.38;4978763;28;20045;-74
2023/01/18 08:13:59;;;;;;;29.85;13.00;;;;;;;-1.66;100.00;99186.66;4929868;28;20385;-74
2023/01/18 08:16:25;;;;;;;26.52;13.10;;;;;;;-1.71;100.00;99192.25;4964336;28;20114;-74
2023/01/18 08:18:51;;;;;;;25.23;13.45;;;;;;;-1.67;100.00;99201.03;4958301;28;20030;-74
2023/01/18 08:21:16;;;;;;;21.70;12.38;;;;;;;-1.67;100.00;99192.97;4937789;28;20062;-74
2023/01/18 08:23:42;;;;;;;24.98;12.38;;;;;;;-1.75;100.00;99200.59;4961383;28;20446;-75
2023/01/18 08:26:08;;;;;;;36.28;15.43;;;;;;;-1.65;100.00;99204.47;4961390;28;20105;-74
2023/01/18 08:28:33;;;;;;;25.38;13.05;;;;;;;-1.65;100.00;99217.91;4978734;28;20593;-75
2023/01/18 08:31:12;;;;;;;29.42;14.75;;;;;;;-1.69;100.00;99209.16;4948668;29;20047;-75
2023/01/18 08:33:39;;;;;;;26.77;13.18;;;;;;;-1.72;100.00;99201.28;4942016;29;20035;-75
2023/01/18 08:36:09;;;;;;;26.35;14.00;;;;;;;-1.65;100.00;99217.91;4958669;29;20031;-74
2023/01/18 08:38:34;;;;;;;25.83;12.95;;;;;;;-1.62;100.00;99214.16;4941548;28;20035;-76
2023/01/18 08:41:02;;;;;;;28.85;14.77;;;;;;;-1.54;100.00;99209.22;4973518;28;20482;-74
2023/01/18 08:43:27;;;;;;;23.45;11.68;;;;;;;-1.57;100.00;99215.66;4958679;28;20027;-75
2023/01/18 08:45:53;;;;;;;30.65;14.73;;;;;;;-1.51;100.00;99220.69;4957847;29;20035;-74
2023/01/18 08:48:18;;;;;;;38.85;15.38;;;;;;;-1.57;100.00;99220.16;4973133;28;20039;-74
2023/01/18 08:50:45;;;;;;;30.20;14.38;;;;;;;-1.52;100.00;99235.03;4942553;28;20043;-75
2023/01/18 08:53:12;;;;;;;25.83;13.52;;;;;;;-1.51;100.00;99231.41;4975794;28;20038;-74
2023/01/18 08:55:39;;;;;;;31.05;14.48;;;;;;;-1.49;100.00;99228.66;4931628;28;20039;-74
2023/01/18 08:58:05;;;;;;;30.80;13.50;;;;;;;-1.45;100.00;99234.72;4930330;29;20046;-74
2023/01/18 09:00:31;;;;;;;28.17;13.27;;;;;;;-1.32;100.00;99227.69;4959240;29;20493;-74
2023/01/18 09:02:58;;;;;;;28.35;13.93;;;;;;;-1.27;100.00;99235.50;4957187;28;20036;-74
2023/01/18 09:05:25;;;;;;;24.58;13.80;;;;;;;-1.21;100.00;99241.38;4957567;28;20069;-74
2023/01/18 09:07:54;;;;;;;29.20;13.77;;;;;;;-1.15;100.00;99250.88;4958568;29;20041;-74
2023/01/18 09:10:21;;;;;;;34.63;15.10;;;;;;;-1.15;100.00;99250.88;4984501;28;20039;-74
2023/01/18 09:12:46;;;;;;;38.72;15.00;;;;;;;-1.13;100.00;99246.31;4970513;28;20043;-74
2023/01/18 09:15:12;;;;;;;47.55;16.27;;;;;;;-1.11;100.00;99252.47;4957167;29;20508;-74
2023/01/18 09:17:38;;;;;;;36.38;15.43;;;;;;;-0.99;100.00;99262.47;4973899;28;20146;-74
2023/01/18 09:20:08;;;;;;;35.22;13.63;;;;;;;-0.89;100.00;99265.50;4957902;28;20071;-74
2023/01/18 09:22:34;;;;;;;29.48;14.40;;;;;;;-0.90;100.00;99262.91;4973086;28;20130;-74
2023/01/18 09:25:00;;;;;;;33.83;16.27;;;;;;;-0.70;100.00;99277.91;4941104;28;20043;-74
2023/01/18 09:27:26;;;;;;;36.10;15.13;;;;;;;-0.59;100.00;99273.63;4963045;28;20044;-75
2023/01/18 09:29:51;;;;;;;31.05;14.38;;;;;;;-0.65;100.00;99278.50;4941783;28;20072;-75
2023/01/18 09:32:19;;;;;;;29.73;14.73;;;;;;;-0.54;100.00;99283.22;4960847;28;20046;-75
2023/01/18 09:34:48;;;;;;;25.50;14.35;;;;;;;-0.37;100.00;99293.84;4952640;29;20038;-76
2023/01/18 09:37:14;;;;;;;25.80;14.25;;;;;;;-0.36;100.00;99287.53;4927870;29;20039;-76
2023/01/18 09:39:42;;;;;;;30.15;14.52;;;;;;;-0.40;100.00;99280.59;4935335;28;20062;-77
2023/01/18 09:42:17;;;;;;;24.13;13.75;;;;;;;-0.39;100.00;99290.38;4967420;28;20035;-76
2023/01/18 09:44:44;;;;;;;31.33;14.02;;;;;;;-0.12;100.00;99295.91;4980866;28;20070;-76
2023/01/18 09:47:22;;;;;;;25.92;13.55;;;;;;;-0.01;100.00;99298.81;4976306;28;20118;-76
2023/01/18 09:49:56;;;;;;;29.15;13.70;;;;;;;0.23;100.00;99302.81;4958419;28;20521;-76
2023/01/18 09:52:44;;;;;;;30.75;15.10;;;;;;;0.58;100.00;99314.06;4956355;28;20093;-76
2023/01/18 09:55:17;;;;;;;29.95;13.75;;;;;;;0.72;100.00;99326.66;4957010;28;20031;-76
2023/01/18 09:58:04;;;;;;;28.63;13.27;;;;;;;0.56;100.00;99332.16;4957079;28;20372;-76
2023/01/18 10:00:34;;;;;;;29.63;13.23;;;;;;;0.85;100.00;99324.94;4956515;28;20043;-76
2023/01/18 10:03:06;;;;;;;31.73;13.25;;;;;;;0.88;100.00;99326.56;4957036;29;20027;-76
2023/01/18 10:05:39;;;;;;;25.05;13.02;;;;;;;0.90;100.00;99338.97;4971731;28;20486;-78
2023/01/18 10:08:22;;;;;;;24.37;13.30;;;;;;;0.89;100.00;99341.75;4950181;28;20043;-77
2023/01/18 10:11:03;;;;;;;20.63;12.02;;;;;;;1.12;100.00;99339.44;4953502;29;20319;-77
2023/01/18 10:13:34;;;;;;;23.30;12.18;;;;;;;1.41;100.00;99338.38;4940452;28;20046;-77
2023/01/18 10:16:01;;;;;;;24.83;11.13;;;;;;;1.39;100.00;99332.22;4972396;28;20512;-77
2023/01/18 10:18:27;;;;;;;22.95;11.40;;;;;;;1.28;100.00;99330.22;4985894;28;20497;-77
2023/01/18 10:20:57;;;;;;;16.27;10.18;;;;;;;1.39;100.00;99340.28;4968159;28;20111;-77
2023/01/18 10:24:20;;;;;;;20.30;11.00;;;;;;;1.45;100.00;99350.69;4957016;28;20035;-77
2023/01/18 10:26:47;;;;;;;22.85;11.73;;;;;;;1.39;100.00;99345.69;4900567;29;20468;-77
2023/01/18 10:29:38;;;;;;;33.03;11.73;;;;;;;1.64;100.00;99342.25;4896300;29;20032;-77
2023/01/18 10:32:10;;;;;;;18.08;9.73;;;;;;;1.67;100.00;99351.09;4941613;28;20071;-77
2023/01/18 10:34:43;;;;;;;20.20;11.05;;;;;;;1.65;100.00;99348.50;4955059;28;20069;-78
2023/01/18 10:37:16;;;;;;;24.25;11.30;;;;;;;1.82;100.00;99341.97;4939963;28;20085;-77
2023/01/18 10:39:53;;;;;;;16.80;9.10;;;;;;;1.69;100.00;99343.75;4975752;28;20035;-77
2023/01/18 10:42:50;;;;;;;21.40;10.68;;;;;;;1.79;100.00;99336.81;4974389;28;20111;-77
2023/01/18 10:45:21;;;;;;;19.98;10.10;;;;;;;1.94;100.00;99337.59;4975488;28;20055;-75
2023/01/18 10:47:52;;;;;;;22.67;9.52;;;;;;;1.96;100.00;99341.91;4958125;28;20458;-76
2023/01/18 10:50:36;;;;;;;24.45;10.60;;;;;;;2.32;100.00;99336.78;4954174;29;20122;-75
2023/01/18 10:53:25;;;;;;;22.85;9.98;;;;;;;2.50;100.00;99345.44;4947410;29;20042;-75
2023/01/18 10:56:17;;;;;;;18.48;9.63;;;;;;;2.54;100.00;99350.53;4933194;29;20039;-75
2023/01/18 10:58:49;;;;;;;18.17;9.63;;;;;;;2.68;100.00;99348.69;4955188;28;20027;-75
2023/01/18 11:01:24;;;;;;;18.33;9.95;;;;;;;2.47;100.00;99353.75;4939190;29;20062;-77
2023/01/18 11:03:51;;;;;;;24.05;11.05;;;;;;;2.65;100.00;99349.75;4934685;29;20079;-76
2023/01/18 11:06:19;;;;;;;18.48;9.25;;;;;;;2.76;100.00;99351.69;4964873;28;20035;-77
2023/01/18 11:08:45;;;;;;;17.73;9.95;;;;;;;2.99;100.00;99350.03;4974199;28;20473;-76
2023/01/18 11:11:11;;;;;;;23.88;9.70;;;;;;;2.98;100.00;99348.31;4965875;28;20506;-76
2023/01/18 11:13:42;;;;;;;13.20;8.30;;;;;;;2.87;100.00;99350.91;4943377;29;20182;-76
2023/01/18 11:16:12;;;;;;;18.55;9.45;;;;;;;2.99;100.00;99346.47;4950339;29;20035;-76
2023/01/18 11:18:58;;;;;;;16.98;9.05;;;;;;;2.93;100.00;99345.06;4936692;29;20046;-76
2023/01/18 11:21:29;;;;;;;19.52;9.43;;;;;;;3.08;100.00;99343.09;4937074;28;20036;-77
2023/01/18 11:23:54;;;;;;;23.50;10.93;;;;;;;3.09;100.00;99342.97;4974994;28;20046;-76
2023/01/18 11:26:22;;;;;;;19.10;9.43;;;;;;;3.09;100.00;99342.13;4939038;28;20047;-77
2023/01/18 11:29:06;;;;;;;26.05;9.88;;;;;;;3.27;100.00;99350.75;4939711;29;20118;-76
2023/01/18 11:31:44;;;;;;;15.75;9.23;;;;;;;3.18;100.00;99340.59;4960201;29;20450;-76
2023/01/18 11:34:38;;;;;;;18.73;9.98;;;;;;;3.22;100.00;99337.56;4942856;29;20033;-76
2023/01/18 11:37:27;;;;;;;17.15;9.80;;;;;;;3.21;100.00;99354.75;4974540;28;20023;-76
2023/01/18 11:39:52;;;;;;;14.40;9.07;;;;;;;3.21;100.00;99349.34;4959312;28;20062;-76
2023/01/18 11:42:20;;;;;;;22.05;10.00;;;;;;;3.29;100.00;99357.75;4960299;29;20044;-76
2023/01/18 11:44:52;;;;;;;19.50;9.70;;;;;;;3.40;100.00;99348.84;4959757;29;20087;-76
2023/01/18 11:47:30;;;;;;;18.10;9.07;;;;;;;3.43;100.00;99350.50;4958614;29;20047;-75
2023/01/18 11:50:03;;;;;;;12.40;8.10;;;;;;;3.23;100.00;99347.41;4960318;28;20031;-76
2023/01/18 11:52:42;;;;;;;18.75;10.05;;;;;;;3.29;100.00;99355.03;4964400;28;20034;-76